Fontana — 9HA4422 — position and weather

sailwx.info

Track history (hours):
 
Tides and Currents Weather Stations Pressure Air Temp Water Temp Dewpoint Dewpoint Depression Visibility Wind Speed Wind Dir Waves Ship Positions

Fontana

Last reported at 2018-Feb-21 12:21 UTC. Time now 2018-Feb-23 07:04 UTC.
Position N 36°22' E 014°50'.

Length 274 m; draft 9.2 m.

Type: Tanker. MMSI: 249896000.

Date/timePositionNaut miles runAvg speedWind from/ knotsBaromVisibWave heightAir tempDewpointWater temp
2018-Feb-21 12:21N 36°22' E 014°50'513.3
2018-Feb-21 12:00N 36°22' E 014°44'612.9
2018-Feb-21 11:30N 36°22' E 014°36'612.6
2018-Feb-21 11:00N 36°23' E 014°28'612.5
2018-Feb-21 10:30N 36°24' E 014°21'612.9
2018-Feb-21 10:00N 36°26' E 014°13'713.1
2018-Feb-21 09:30N 36°28' E 014°05'713.0
2018-Feb-21 08:59N 36°30' E 013°57'  
2018-Feb-16 01:00N 29°29' W 013°55'14 8.3
2018-Feb-15 23:16N 29°18' W 014°06'2 9.5
2018-Feb-15 23:00N 29°17' W 014°08'10 9.7
2018-Feb-15 21:57N 29°09' W 014°16'4 9.9
2018-Feb-15 21:30N 29°06' W 014°19'9 9.8
2018-Feb-15 20:37N 28°59' W 014°26'3 9.7
2018-Feb-15 20:21N 28°58' W 014°28'4 9.8
2018-Feb-15 19:59N 28°55' W 014°31'510.0
2018-Feb-15 19:27N 28°51' W 014°35'4 9.9
2018-Feb-15 19:00N 28°48' W 014°39'5 9.9
2018-Feb-15 18:30N 28°44' W 014°42'5 9.7
2018-Feb-15 18:00N 28°41' W 014°46'5 9.4
2018-Feb-15 17:30N 28°37' W 014°50'5 9.3
2018-Feb-15 17:00N 28°34' W 014°53'5 9.6
2018-Feb-15 16:30N 28°30' W 014°57'5 9.8
2018-Feb-15 16:00N 28°27' W 015°01'510.1
2018-Feb-15 15:30N 28°23' W 015°05'510.0
2018-Feb-15 15:00N 28°19' W 015°09'5 9.9
2018-Feb-15 14:30N 28°16' W 015°13'510.1
2018-Feb-15 14:00N 28°12' W 015°16'4 8.5
2018-Feb-15 13:30N 28°09' W 015°20'2 4.3
2018-Feb-15 13:00N 28°07' W 015°21'2 4.3
2018-Feb-15 12:30N 28°05' W 015°19'5 8.9
2018-Feb-15 11:58N 28°02' W 015°15'510.1
2018-Feb-15 11:30N 27°58' W 015°14'611.8
2018-Feb-15 11:00N 27°52' W 015°14'612.0
2018-Feb-15 10:30N 27°46' W 015°14'611.1
2018-Feb-15 10:00N 27°40' W 015°15'8 0.2
2018-Feb-13 07:01N 27°33' W 015°20'2 7.6
2018-Feb-13 06:48N 27°34' W 015°18'3 7.3
2018-Feb-13 06:21N 27°35' W 015°14'3 7.6
2018-Feb-13 05:59N 27°38' W 015°14'4 8.1
2018-Feb-13 05:29N 27°42' W 015°14'4 8.1
2018-Feb-13 05:00N 27°46' W 015°14'4 8.2
2018-Feb-13 04:30N 27°50' W 015°15'4 8.0
2018-Feb-13 04:00N 27°54' W 015°14'4 8.1
2018-Feb-13 03:30N 27°58' W 015°14'4 7.8
2018-Feb-13 03:00N 28°02' W 015°15'3 6.8
2018-Feb-13 02:30N 28°05' W 015°17'3 6.8
2018-Feb-13 02:00N 28°06' W 015°20'3 6.8
2018-Feb-13 01:30N 28°08' W 015°24'0 0.7
2018-Feb-13 01:00N 28°08' W 015°24'0 0.0
2018-Feb-13 00:30N 28°08' W 015°24'0 0.0
2018-Feb-13 00:00N 28°08' W 015°24'0 0.0
2018-Feb-12 23:24N 28°08' W 015°24'0 0.0
2018-Feb-12 23:00N 28°08' W 015°24'0 0.0
2018-Feb-12 22:30N 28°08' W 015°24'0 0.0
2018-Feb-12 22:00N 28°08' W 015°24'0 0.0
2018-Feb-12 21:30N 28°08' W 015°24'0 0.0
2018-Feb-12 21:00N 28°08' W 015°24'0 0.0
2018-Feb-12 20:30N 28°08' W 015°24'0 0.0
2018-Feb-12 20:00N 28°08' W 015°24'0 0.0
2018-Feb-12 19:30N 28°08' W 015°24'0 0.0
2018-Feb-12 19:00N 28°08' W 015°24'0 0.0
2018-Feb-12 18:30N 28°08' W 015°24'0 0.0
2018-Feb-12 18:00N 28°08' W 015°24'0 0.3
2018-Feb-12 17:28N 28°08' W 015°24'1 2.2
2018-Feb-12 17:00N 28°08' W 015°23'1 1.5
2018-Feb-12 16:30N 28°08' W 015°22'0 0.6
2018-Feb-12 16:00N 28°08' W 015°22'1 1.3
2018-Feb-12 15:30N 28°08' W 015°22'1 1.8
2018-Feb-12 15:00N 28°09' W 015°22'3 5.1
2018-Feb-12 14:30N 28°11' W 015°21'3 5.4
2018-Feb-12 14:00N 28°14' W 015°19'3 5.5
2018-Feb-12 13:30N 28°16' W 015°18'3 5.5
2018-Feb-12 13:00N 28°19' W 015°17'3 5.7
2018-Feb-12 12:30N 28°22' W 015°16'4 7.2
2018-Feb-12 12:00N 28°25' W 015°14'3 6.7
2018-Feb-12 11:30N 28°28' W 015°13'3 5.6
2018-Feb-12 11:00N 28°31' W 015°12'3 5.7
2018-Feb-12 10:30N 28°33' W 015°10'3 6.2
2018-Feb-12 10:00N 28°36' W 015°09'4 8.4
2018-Feb-12 09:30N 28°40' W 015°07'713.2
2018-Feb-12 09:00N 28°46' W 015°04'6 7.9
2018-Feb-12 08:18N 28°51' W 015°02'  
Track history (hours):
 
Tides and Currents Weather Stations Pressure Air Temp Water Temp Dewpoint Dewpoint Depression Visibility Wind Speed Wind Dir Waves Ship Positions

Fontana

Last reported at 2018-Feb-21 12:21 UTC. Time now 2018-Feb-23 07:04 UTC.
Position N 36°22' E 014°50'.

Length 274 m; draft 9.2 m.

Type: Tanker. MMSI: 249896000.

Date/timePositionNaut miles runAvg speedWind from/ knotsBaromVisibWave heightAir tempDewpointWater temp
2018-Feb-21 12:21N 36°22' E 014°50'513.3
2018-Feb-21 12:00N 36°22' E 014°44'612.9
2018-Feb-21 11:30N 36°22' E 014°36'612.6
2018-Feb-21 11:00N 36°23' E 014°28'612.5
2018-Feb-21 10:30N 36°24' E 014°21'612.9
2018-Feb-21 10:00N 36°26' E 014°13'713.1
2018-Feb-21 09:30N 36°28' E 014°05'713.0
2018-Feb-21 08:59N 36°30' E 013°57'  
2018-Feb-16 01:00N 29°29' W 013°55'14 8.3
2018-Feb-15 23:16N 29°18' W 014°06'2 9.5
2018-Feb-15 23:00N 29°17' W 014°08'10 9.7
2018-Feb-15 21:57N 29°09' W 014°16'4 9.9
2018-Feb-15 21:30N 29°06' W 014°19'9 9.8
2018-Feb-15 20:37N 28°59' W 014°26'3 9.7
2018-Feb-15 20:21N 28°58' W 014°28'4 9.8
2018-Feb-15 19:59N 28°55' W 014°31'510.0
2018-Feb-15 19:27N 28°51' W 014°35'4 9.9
2018-Feb-15 19:00N 28°48' W 014°39'5 9.9
2018-Feb-15 18:30N 28°44' W 014°42'5 9.7
2018-Feb-15 18:00N 28°41' W 014°46'5 9.4
2018-Feb-15 17:30N 28°37' W 014°50'5 9.3
2018-Feb-15 17:00N 28°34' W 014°53'5 9.6
2018-Feb-15 16:30N 28°30' W 014°57'5 9.8
2018-Feb-15 16:00N 28°27' W 015°01'510.1
2018-Feb-15 15:30N 28°23' W 015°05'510.0
2018-Feb-15 15:00N 28°19' W 015°09'5 9.9
2018-Feb-15 14:30N 28°16' W 015°13'510.1
2018-Feb-15 14:00N 28°12' W 015°16'4 8.5
2018-Feb-15 13:30N 28°09' W 015°20'2 4.3
2018-Feb-15 13:00N 28°07' W 015°21'2 4.3
2018-Feb-15 12:30N 28°05' W 015°19'5 8.9
2018-Feb-15 11:58N 28°02' W 015°15'510.1
2018-Feb-15 11:30N 27°58' W 015°14'611.8
2018-Feb-15 11:00N 27°52' W 015°14'612.0
2018-Feb-15 10:30N 27°46' W 015°14'611.1
2018-Feb-15 10:00N 27°40' W 015°15'8 0.2
2018-Feb-13 07:01N 27°33' W 015°20'2 7.6
2018-Feb-13 06:48N 27°34' W 015°18'3 7.3
2018-Feb-13 06:21N 27°35' W 015°14'3 7.6
2018-Feb-13 05:59N 27°38' W 015°14'4 8.1
2018-Feb-13 05:29N 27°42' W 015°14'4 8.1
2018-Feb-13 05:00N 27°46' W 015°14'4 8.2
2018-Feb-13 04:30N 27°50' W 015°15'4 8.0
2018-Feb-13 04:00N 27°54' W 015°14'4 8.1
2018-Feb-13 03:30N 27°58' W 015°14'4 7.8
2018-Feb-13 03:00N 28°02' W 015°15'3 6.8
2018-Feb-13 02:30N 28°05' W 015°17'3 6.8
2018-Feb-13 02:00N 28°06' W 015°20'3 6.8
2018-Feb-13 01:30N 28°08' W 015°24'0 0.7
2018-Feb-13 01:00N 28°08' W 015°24'0 0.0
2018-Feb-13 00:30N 28°08' W 015°24'0 0.0
2018-Feb-13 00:00N 28°08' W 015°24'0 0.0
2018-Feb-12 23:24N 28°08' W 015°24'0 0.0
2018-Feb-12 23:00N 28°08' W 015°24'0 0.0
2018-Feb-12 22:30N 28°08' W 015°24'0 0.0
2018-Feb-12 22:00N 28°08' W 015°24'0 0.0
2018-Feb-12 21:30N 28°08' W 015°24'0 0.0
2018-Feb-12 21:00N 28°08' W 015°24'0 0.0
2018-Feb-12 20:30N 28°08' W 015°24'0 0.0
2018-Feb-12 20:00N 28°08' W 015°24'0 0.0
2018-Feb-12 19:30N 28°08' W 015°24'0 0.0
2018-Feb-12 19:00N 28°08' W 015°24'0 0.0
2018-Feb-12 18:30N 28°08' W 015°24'0 0.0
2018-Feb-12 18:00N 28°08' W 015°24'0 0.3
2018-Feb-12 17:28N 28°08' W 015°24'1 2.2
2018-Feb-12 17:00N 28°08' W 015°23'1 1.5
2018-Feb-12 16:30N 28°08' W 015°22'0 0.6
2018-Feb-12 16:00N 28°08' W 015°22'1 1.3
2018-Feb-12 15:30N 28°08' W 015°22'1 1.8
2018-Feb-12 15:00N 28°09' W 015°22'3 5.1
2018-Feb-12 14:30N 28°11' W 015°21'3 5.4
2018-Feb-12 14:00N 28°14' W 015°19'3 5.5
2018-Feb-12 13:30N 28°16' W 015°18'3 5.5
2018-Feb-12 13:00N 28°19' W 015°17'3 5.7
2018-Feb-12 12:30N 28°22' W 015°16'4 7.2
2018-Feb-12 12:00N 28°25' W 015°14'3 6.7
2018-Feb-12 11:30N 28°28' W 015°13'3 5.6
2018-Feb-12 11:00N 28°31' W 015°12'3 5.7
2018-Feb-12 10:30N 28°33' W 015°10'3 6.2
2018-Feb-12 10:00N 28°36' W 015°09'4 8.4
2018-Feb-12 09:30N 28°40' W 015°07'713.2
2018-Feb-12 09:00N 28°46' W 015°04'6 7.9
2018-Feb-12 08:18N 28°51' W 015°02'  

Dump ship's entire track history